createdAt,value
2018-11-13T00:01:15.491Z,8.77
2018-11-13T00:03:42.886Z,9.00
2018-11-13T00:06:10.254Z,8.90
2018-11-13T00:08:37.626Z,9.47
2018-11-13T00:11:05.014Z,9.80
2018-11-13T00:13:32.381Z,9.40
2018-11-13T00:15:59.742Z,9.13
2018-11-13T00:18:27.118Z,9.20
2018-11-13T00:20:54.506Z,8.63
2018-11-13T00:23:21.866Z,8.23
2018-11-13T00:25:49.266Z,9.60
2018-11-13T00:28:16.642Z,9.67
2018-11-13T00:30:44.019Z,8.40
2018-11-13T00:33:12.390Z,8.33
2018-11-13T00:35:39.760Z,8.73
2018-11-13T00:38:07.131Z,9.07
2018-11-13T00:40:34.502Z,8.67
2018-11-13T00:43:02.886Z,9.00
2018-11-13T00:45:30.317Z,9.10
2018-11-13T00:47:57.679Z,9.17
2018-11-13T00:50:25.014Z,8.43
2018-11-13T00:52:52.410Z,8.30
2018-11-13T00:55:19.789Z,9.73
2018-11-13T00:57:48.237Z,8.80
2018-11-13T01:00:18.059Z,8.30
2018-11-13T01:02:45.618Z,9.07
2018-11-13T01:05:14.237Z,7.70
2018-11-13T01:07:42.446Z,9.20
2018-11-13T01:10:10.801Z,8.73
2018-11-13T01:12:38.198Z,8.23
2018-11-13T01:15:06.172Z,8.23
2018-11-13T01:17:33.496Z,7.70
2018-11-13T01:20:00.867Z,8.77
2018-11-13T01:22:28.327Z,8.00
2018-11-13T01:24:55.638Z,8.97
2018-11-13T01:27:23.001Z,8.20
2018-11-13T01:29:54.510Z,8.53
2018-11-13T01:32:21.946Z,7.90
2018-11-13T01:34:49.314Z,7.60
2018-11-13T01:37:16.683Z,7.47
2018-11-13T01:39:44.052Z,6.37
2018-11-13T01:42:11.429Z,7.17
2018-11-13T01:44:38.818Z,7.00
2018-11-13T01:47:06.263Z,7.40
2018-11-13T01:49:33.636Z,7.23
2018-11-13T01:52:01.014Z,8.43
2018-11-13T01:54:28.380Z,7.30
2018-11-13T01:56:55.814Z,7.67
2018-11-13T01:59:23.159Z,8.57
2018-11-13T02:01:50.506Z,8.17
2018-11-13T02:04:17.882Z,8.77
2018-11-13T02:06:45.258Z,8.87
2018-11-13T02:09:12.623Z,8.73
2018-11-13T02:11:40.046Z,9.10
2018-11-13T02:14:07.439Z,9.10
2018-11-13T02:16:34.862Z,8.80
2018-11-13T02:19:02.254Z,8.60
2018-11-13T02:21:29.874Z,8.73
2018-11-13T02:23:57.259Z,9.20
2018-11-13T02:26:24.631Z,9.27
2018-11-13T02:28:52.018Z,9.47
2018-11-13T02:31:19.379Z,9.57
2018-11-13T02:33:46.751Z,8.13
2018-11-13T02:36:14.131Z,8.13
2018-11-13T02:38:41.487Z,8.27
2018-11-13T02:41:08.850Z,7.93
2018-11-13T02:43:36.239Z,5.83
2018-11-13T02:46:03.607Z,4.20
2018-11-13T02:48:31.011Z,5.10
2018-11-13T02:50:58.412Z,5.90
2018-11-13T02:53:25.803Z,4.93
2018-11-13T02:55:53.178Z,5.10
2018-11-13T02:58:20.546Z,4.90
2018-11-13T03:00:47.937Z,5.63
2018-11-13T03:03:15.342Z,4.90
2018-11-13T03:05:42.702Z,5.30
2018-11-13T03:08:10.067Z,4.80
2018-11-13T03:10:37.466Z,4.83
2018-11-13T03:13:04.903Z,4.63
2018-11-13T03:15:32.337Z,3.67
2018-11-13T03:17:59.707Z,4.17
2018-11-13T03:20:27.062Z,2.90
2018-11-13T03:22:54.438Z,3.40
2018-11-13T03:25:22.466Z,3.17
2018-11-13T03:27:49.822Z,2.70
2018-11-13T03:30:19.975Z,1.83
2018-11-13T03:32:47.459Z,1.90
2018-11-13T03:35:14.830Z,1.73
2018-11-13T03:37:42.558Z,2.23
2018-11-13T03:40:13.579Z,2.60
2018-11-13T03:42:41.463Z,1.80
2018-11-13T03:45:10.143Z,1.67
2018-11-13T03:47:37.790Z,1.90
2018-11-13T03:50:06.026Z,1.47
2018-11-13T03:52:33.377Z,3.00
2018-11-13T03:55:00.819Z,2.17
2018-11-13T03:57:28.266Z,1.90
2018-11-13T03:59:55.652Z,2.30
2018-11-13T04:02:23.022Z,2.07
2018-11-13T04:04:50.406Z,1.70
2018-11-13T04:07:17.829Z,2.30
2018-11-13T04:09:45.189Z,3.13
2018-11-13T04:12:12.555Z,2.50
2018-11-13T04:14:39.958Z,3.40
2018-11-13T04:17:07.332Z,2.50
2018-11-13T04:19:38.496Z,3.00
2018-11-13T04:22:05.858Z,3.00
2018-11-13T04:24:33.533Z,2.60
2018-11-13T04:27:04.594Z,2.60
2018-11-13T04:29:31.954Z,2.27
2018-11-13T04:31:59.344Z,3.60
2018-11-13T04:34:26.714Z,2.43
2018-11-13T04:36:54.074Z,2.00
2018-11-13T04:39:21.456Z,2.70
2018-11-13T04:41:48.811Z,2.40
2018-11-13T04:44:16.175Z,3.23
2018-11-13T04:46:43.817Z,2.20
2018-11-13T04:49:11.199Z,2.40
2018-11-13T04:51:38.706Z,2.73
2018-11-13T04:54:06.006Z,1.40
2018-11-13T04:56:33.362Z,1.50
2018-11-13T04:59:00.742Z,1.90
2018-11-13T05:01:28.106Z,1.77
2018-11-13T05:03:59.306Z,2.20
2018-11-13T05:06:26.678Z,1.93
2018-11-13T05:08:54.030Z,2.53
2018-11-13T05:11:21.395Z,2.20
2018-11-13T05:13:48.800Z,2.40
2018-11-13T05:16:16.140Z,1.70
2018-11-13T05:18:43.515Z,1.80
2018-11-13T05:21:10.870Z,2.23
2018-11-13T05:23:38.261Z,1.87
2018-11-13T05:26:05.634Z,2.20
2018-11-13T05:28:32.990Z,2.20
2018-11-13T05:31:00.358Z,2.20
2018-11-13T05:33:27.722Z,2.47
2018-11-13T05:35:55.081Z,3.33
2018-11-13T05:38:22.439Z,3.67
2018-11-13T05:40:49.791Z,2.53
2018-11-13T05:43:17.156Z,2.63
2018-11-13T05:45:44.534Z,3.50
2018-11-13T05:48:11.900Z,3.50
2018-11-13T05:50:39.259Z,5.10
2018-11-13T05:53:06.638Z,4.80
2018-11-13T05:55:34.059Z,3.73
2018-11-13T05:58:02.685Z,4.27
2018-11-13T06:00:31.191Z,3.00
2018-11-13T06:02:58.698Z,2.60
2018-11-13T06:05:26.086Z,3.80
2018-11-13T06:07:53.474Z,2.90
2018-11-13T06:10:20.878Z,2.87
2018-11-13T06:12:52.080Z,3.00
2018-11-13T06:15:22.503Z,3.03
2018-11-13T06:17:49.934Z,4.23
2018-11-13T06:20:17.322Z,3.47
2018-11-13T06:22:45.683Z,3.33
2018-11-13T06:25:14.266Z,4.00
2018-11-13T06:27:42.738Z,4.90
2018-11-13T06:30:12.870Z,4.20
2018-11-13T06:32:43.696Z,4.60
2018-11-13T06:35:11.171Z,4.63
2018-11-13T06:37:38.940Z,4.03
2018-11-13T06:40:06.790Z,4.17
2018-11-13T06:42:34.158Z,4.47
2018-11-13T06:45:01.540Z,4.20
2018-11-13T06:47:28.921Z,5.57
2018-11-13T06:49:56.287Z,3.60
2018-11-13T06:52:27.186Z,3.53
2018-11-13T06:55:02.946Z,3.63
2018-11-13T06:57:31.159Z,2.87
2018-11-13T06:59:58.651Z,2.83
2018-11-13T07:02:26.003Z,4.13
2018-11-13T07:04:53.391Z,2.90
2018-11-13T07:07:24.302Z,2.60
2018-11-13T07:09:54.695Z,2.60
2018-11-13T07:12:22.066Z,2.50
2018-11-13T07:14:49.433Z,2.17
2018-11-13T07:17:17.078Z,2.10
2018-11-13T07:19:44.459Z,2.20
2018-11-13T07:22:11.883Z,2.17
2018-11-13T07:24:39.274Z,2.80
2018-11-13T07:27:06.708Z,2.57
2018-11-13T07:29:34.026Z,2.30
2018-11-13T07:32:01.398Z,3.17
2018-11-13T07:34:28.815Z,3.00
2018-11-13T07:36:59.695Z,2.70
2018-11-13T07:39:27.054Z,3.30
2018-11-13T07:41:54.535Z,2.57
2018-11-13T07:44:21.907Z,2.50
2018-11-13T07:46:49.682Z,2.37
2018-11-13T07:49:16.999Z,2.73
2018-11-13T07:51:44.475Z,2.43
2018-11-13T07:54:11.990Z,2.97
2018-11-13T07:56:39.419Z,3.00
2018-11-13T07:59:06.799Z,3.20
2018-11-13T08:01:34.171Z,2.57
2018-11-13T08:04:01.533Z,2.90
2018-11-13T08:06:28.910Z,2.83
2018-11-13T08:08:56.270Z,1.63
2018-11-13T08:11:23.664Z,1.80
2018-11-13T08:13:51.121Z,2.03
2018-11-13T08:16:18.478Z,2.23
2018-11-13T08:18:49.430Z,1.80
2018-11-13T08:21:16.802Z,1.70
2018-11-13T08:23:44.166Z,1.63
2018-11-13T08:26:11.587Z,1.70
2018-11-13T08:28:38.919Z,2.03
2018-11-13T08:31:06.599Z,1.50
2018-11-13T08:33:33.963Z,1.70
2018-11-13T08:36:01.353Z,1.50
2018-11-13T08:38:28.729Z,2.10
2018-11-13T08:40:56.102Z,2.33
2018-11-13T08:43:23.459Z,1.77
2018-11-13T08:45:50.814Z,2.03
2018-11-13T08:48:18.214Z,2.63
2018-11-13T08:50:45.646Z,2.53
2018-11-13T08:53:12.946Z,2.00
2018-11-13T08:55:40.326Z,1.80
2018-11-13T08:58:07.682Z,1.33
2018-11-13T09:00:35.070Z,1.67
2018-11-13T09:03:02.435Z,1.50
2018-11-13T09:05:29.788Z,1.17
2018-11-13T09:07:57.170Z,1.30
2018-11-13T09:10:24.550Z,1.67
2018-11-13T09:12:51.914Z,1.30
2018-11-13T09:15:20.298Z,1.20
2018-11-13T09:17:47.693Z,1.30
2018-11-13T09:20:16.246Z,1.20
2018-11-13T09:22:43.634Z,1.60
2018-11-13T09:25:13.694Z,1.20
2018-11-13T09:27:41.042Z,2.07
2018-11-13T09:30:10.049Z,2.53
2018-11-13T09:32:37.531Z,2.17
2018-11-13T09:35:05.150Z,2.00
2018-11-13T09:37:32.502Z,1.73
2018-11-13T09:39:59.906Z,2.13
2018-11-13T09:42:27.266Z,2.17
2018-11-13T09:44:54.651Z,1.93
2018-11-13T09:47:22.002Z,1.57
2018-11-13T09:49:49.351Z,1.23
2018-11-13T09:52:16.717Z,1.00
2018-11-13T09:54:44.098Z,1.40
2018-11-13T09:57:11.459Z,1.47
2018-11-13T09:59:38.855Z,1.43
2018-11-13T10:02:06.794Z,1.57
2018-11-13T10:04:34.259Z,2.30
2018-11-13T10:07:01.091Z,1.97
2018-11-13T10:09:28.462Z,2.40
2018-11-13T10:11:55.839Z,2.70
2018-11-13T10:14:23.498Z,2.60
2018-11-13T10:16:50.863Z,2.10
2018-11-13T10:19:18.244Z,2.30
2018-11-13T10:21:45.618Z,2.03
2018-11-13T10:24:13.004Z,2.33
2018-11-13T10:26:40.368Z,1.50
2018-11-13T10:29:07.735Z,1.73
2018-11-13T10:31:35.114Z,1.23
2018-11-13T10:34:02.506Z,1.23
2018-11-13T10:36:29.902Z,0.90
2018-11-13T10:38:57.386Z,1.40
2018-11-13T10:41:24.840Z,1.00
2018-11-13T10:43:52.138Z,1.60
2018-11-13T10:46:19.590Z,1.83
2018-11-13T10:48:46.957Z,1.20
2018-11-13T10:51:14.319Z,1.60
2018-11-13T10:53:41.703Z,1.00
2018-11-13T10:56:09.424Z,1.13
2018-11-13T10:58:36.969Z,1.23
2018-11-13T11:01:10.459Z,1.10
2018-11-13T11:04:44.458Z,1.53
2018-11-13T11:07:12.051Z,1.10
2018-11-13T11:09:39.588Z,1.03
2018-11-13T11:12:07.171Z,1.13
2018-11-13T11:14:34.729Z,1.33
2018-11-13T11:17:02.329Z,1.73
2018-11-13T11:19:30.487Z,1.60
2018-11-13T11:21:58.028Z,1.50
2018-11-13T11:24:25.620Z,1.40
2018-11-13T11:26:53.239Z,1.50
2018-11-13T11:29:20.808Z,1.90
2018-11-13T11:31:48.460Z,1.70
2018-11-13T11:34:16.056Z,1.47
2018-11-13T11:36:43.644Z,1.70
2018-11-13T11:39:11.929Z,1.20
2018-11-13T11:41:39.612Z,1.57
2018-11-13T11:44:07.899Z,1.40
2018-11-13T11:46:35.464Z,1.43
2018-11-13T11:49:03.519Z,1.60
2018-11-13T11:51:32.076Z,1.60
2018-11-13T11:53:59.798Z,1.27
2018-11-13T11:56:27.367Z,1.60
2018-11-13T11:58:54.919Z,1.40
2018-11-13T12:01:22.441Z,1.40
2018-11-13T12:03:50.027Z,1.30
2018-11-13T12:06:17.539Z,1.73
2018-11-13T12:08:45.112Z,1.90
2018-11-13T12:11:12.708Z,1.30
2018-11-13T12:13:40.311Z,1.40
2018-11-13T12:16:07.995Z,1.90
2018-11-13T12:18:35.590Z,1.63
2018-11-13T12:21:03.208Z,1.97
2018-11-13T12:23:30.823Z,0.90
2018-11-13T12:25:58.530Z,1.20
2018-11-13T12:28:25.950Z,1.07
2018-11-13T12:30:53.575Z,1.33
2018-11-13T12:33:21.121Z,1.70
2018-11-13T12:35:48.780Z,1.30
2018-11-13T12:38:16.303Z,1.10
2018-11-13T12:40:43.941Z,1.50
2018-11-13T12:43:11.460Z,1.13
2018-11-13T12:45:39.069Z,1.60
2018-11-13T12:48:06.668Z,1.47
2018-11-13T12:50:39.919Z,1.20
2018-11-13T12:53:07.452Z,1.70
2018-11-13T12:55:35.138Z,1.40
2018-11-13T12:58:02.684Z,0.80
2018-11-13T13:00:30.376Z,1.50
2018-11-13T13:03:01.250Z,1.30
2018-11-13T13:05:28.873Z,1.50
2018-11-13T13:07:56.427Z,1.00
2018-11-13T13:10:24.068Z,1.13
2018-11-13T13:12:51.631Z,1.10
2018-11-13T13:15:19.833Z,1.10
2018-11-13T13:17:47.463Z,1.40
2018-11-13T13:20:16.825Z,1.67
2018-11-13T13:22:45.625Z,1.63
2018-11-13T13:25:14.634Z,0.93
2018-11-13T13:27:42.216Z,0.73
2018-11-13T13:30:11.187Z,1.47
2018-11-13T13:32:38.808Z,1.43
2018-11-13T13:35:12.080Z,1.50
2018-11-13T13:37:39.747Z,1.00
2018-11-13T13:40:07.357Z,1.40
2018-11-13T13:42:36.088Z,1.30
2018-11-13T13:45:03.888Z,1.20
2018-11-13T13:47:31.472Z,1.40
2018-11-13T13:49:59.016Z,1.27
2018-11-13T13:52:26.596Z,1.27
2018-11-13T13:54:54.188Z,1.43
2018-11-13T13:57:21.735Z,1.80
2018-11-13T13:59:49.574Z,1.30
2018-11-13T14:02:17.007Z,0.87
2018-11-13T14:04:44.519Z,1.20
2018-11-13T14:07:12.160Z,1.40
2018-11-13T14:09:39.708Z,1.20
2018-11-13T14:12:07.287Z,1.10
2018-11-13T14:14:34.877Z,1.53
2018-11-13T14:17:02.511Z,1.50
2018-11-13T14:19:30.088Z,1.13
2018-11-13T14:21:57.731Z,1.33
2018-11-13T14:24:25.350Z,1.80
2018-11-13T14:26:52.918Z,1.00
2018-11-13T14:29:20.528Z,1.73
2018-11-13T14:31:48.122Z,1.40
2018-11-13T14:34:15.715Z,1.40
2018-11-13T14:36:43.328Z,1.50
2018-11-13T14:39:11.339Z,1.60
2018-11-13T14:41:39.064Z,1.53
2018-11-13T14:44:06.798Z,0.87
2018-11-13T14:46:34.444Z,1.30
2018-11-13T14:49:02.000Z,1.20
2018-11-13T14:51:29.617Z,1.53
2018-11-13T14:53:57.208Z,1.73
2018-11-13T14:56:24.932Z,1.33
2018-11-13T14:58:52.499Z,1.30
2018-11-13T15:01:20.065Z,1.00
2018-11-13T15:03:47.663Z,1.07
2018-11-13T15:06:15.343Z,1.50
2018-11-13T15:08:42.965Z,1.47
2018-11-13T15:11:10.539Z,1.17
2018-11-13T15:13:38.179Z,1.20
2018-11-13T15:16:05.788Z,1.27
2018-11-13T15:18:33.432Z,1.50
2018-11-13T15:21:01.050Z,1.37
2018-11-13T15:23:28.635Z,1.53
2018-11-13T15:25:56.252Z,1.00
2018-11-13T15:28:23.891Z,1.50
2018-11-13T15:30:51.461Z,1.10
2018-11-13T15:33:19.733Z,0.97
2018-11-13T15:35:47.283Z,1.60
2018-11-13T15:38:14.922Z,1.27
2018-11-13T15:40:42.547Z,1.83
2018-11-13T15:43:10.092Z,1.40
2018-11-13T15:45:37.708Z,1.87
2018-11-13T15:48:06.529Z,1.40
2018-11-13T15:50:34.933Z,1.07
2018-11-13T15:53:02.513Z,1.60
2018-11-13T15:55:30.067Z,1.40
2018-11-13T15:57:57.928Z,1.17
2018-11-13T16:00:32.046Z,2.77
2018-11-13T16:03:00.402Z,1.77
2018-11-13T16:05:29.688Z,1.50
2018-11-13T16:07:58.261Z,1.33
2018-11-13T16:10:26.013Z,1.87
2018-11-13T16:12:53.782Z,1.13
2018-11-13T16:15:22.118Z,1.60
2018-11-13T16:17:50.553Z,1.73
2018-11-13T16:20:18.488Z,4.25
2018-11-13T16:22:46.070Z,2.20
2018-11-13T16:25:13.588Z,1.97
2018-11-13T16:27:41.132Z,3.40
2018-11-13T16:30:09.559Z,2.30
2018-11-13T16:32:37.087Z,2.80
2018-11-13T16:35:05.562Z,1.50
2018-11-13T16:37:33.125Z,1.50
2018-11-13T16:40:00.773Z,2.50
2018-11-13T16:42:28.264Z,1.50
2018-11-13T16:44:55.842Z,2.50
2018-11-13T16:47:23.258Z,1.47
2018-11-13T16:49:50.810Z,2.60
2018-11-13T16:52:18.342Z,2.20
2018-11-13T16:54:49.608Z,3.20
2018-11-13T16:57:17.985Z,2.20
2018-11-13T16:59:46.017Z,1.50
2018-11-13T17:02:13.795Z,1.70
2018-11-13T17:04:41.513Z,1.17
2018-11-13T17:07:09.254Z,1.43
2018-11-13T17:09:36.785Z,1.43
2018-11-13T17:12:05.040Z,1.40
2018-11-13T17:14:32.503Z,2.37
2018-11-13T17:17:00.006Z,1.90
2018-11-13T17:19:29.006Z,2.10
2018-11-13T17:21:56.834Z,1.70
2018-11-13T17:24:28.252Z,1.40
2018-11-13T17:26:55.776Z,1.43
2018-11-13T17:29:24.279Z,1.90
2018-11-13T17:31:51.810Z,2.40
2018-11-13T17:34:19.313Z,1.70
2018-11-13T17:36:47.054Z,1.97
2018-11-13T17:39:14.593Z,1.55
2018-11-13T17:41:42.410Z,1.57
2018-11-13T17:44:10.036Z,1.37
2018-11-13T17:46:37.534Z,2.10
2018-11-13T17:49:05.166Z,1.57
2018-11-13T17:51:33.200Z,1.43
2018-11-13T17:54:00.782Z,1.70
2018-11-13T17:56:28.429Z,2.77
2018-11-13T17:58:56.013Z,1.95
2018-11-13T18:01:23.629Z,1.72
2018-11-13T18:03:51.205Z,1.85
2018-11-13T18:06:18.754Z,2.60
2018-11-13T18:08:46.226Z,2.40
2018-11-13T18:26:41.033Z,1.87
2018-11-13T18:29:08.507Z,2.02
2018-11-13T18:31:36.150Z,2.10
2018-11-13T18:34:03.755Z,2.42
2018-11-13T18:36:31.285Z,2.92
2018-11-13T18:38:59.023Z,2.27
2018-11-13T18:41:26.433Z,2.37
2018-11-13T18:43:53.981Z,2.08
2018-11-13T18:46:21.567Z,2.05
2018-11-13T18:48:49.046Z,2.08
2018-11-13T18:51:16.677Z,3.25
2018-11-13T18:53:44.224Z,2.47
2018-11-13T18:56:12.023Z,3.08
2018-11-13T18:58:40.075Z,2.50
2018-11-13T19:01:07.986Z,2.33
2018-11-13T19:03:35.692Z,2.05
2018-11-13T19:06:03.903Z,2.87
2018-11-13T19:08:32.067Z,2.27
2018-11-13T19:11:02.496Z,2.67
2018-11-13T19:13:31.692Z,2.02
2018-11-13T19:16:01.917Z,2.10
2018-11-13T19:18:31.248Z,2.47
2018-11-13T19:21:00.636Z,2.35
2018-11-13T19:23:29.955Z,2.55
2018-11-13T19:25:58.904Z,2.62
2018-11-13T19:28:28.307Z,2.90
2018-11-13T19:30:57.581Z,2.27
2018-11-13T19:33:26.650Z,2.85
2018-11-13T19:35:56.075Z,2.90
2018-11-13T19:38:25.364Z,2.27
2018-11-13T19:40:54.702Z,3.80
2018-11-13T19:43:24.345Z,3.20
2018-11-13T19:45:53.646Z,3.37
2018-11-13T19:48:22.995Z,4.30
2018-11-13T19:50:52.537Z,3.55
2018-11-13T19:53:21.981Z,4.47
2018-11-13T19:55:51.404Z,7.03
2018-11-13T19:58:20.948Z,4.67
2018-11-13T20:00:50.358Z,3.47
2018-11-13T20:03:19.983Z,4.50
2018-11-13T20:05:49.387Z,2.42
2018-11-13T20:08:18.855Z,3.00
2018-11-13T20:10:48.341Z,2.72
2018-11-13T20:13:18.052Z,2.90
2018-11-13T20:15:47.562Z,2.30
2018-11-13T20:18:17.232Z,2.65
2018-11-13T20:20:46.661Z,3.50
2018-11-13T20:23:16.046Z,3.55
2018-11-13T20:25:45.564Z,3.98
2018-11-13T20:28:15.016Z,2.85
2018-11-13T20:30:44.357Z,2.72
2018-11-13T20:33:14.089Z,3.17
2018-11-13T20:35:43.554Z,3.65
2018-11-13T20:38:12.938Z,3.45
2018-11-13T20:40:42.543Z,3.10
2018-11-13T20:43:12.758Z,2.65
2018-11-13T20:45:42.395Z,2.80
2018-11-13T20:48:11.721Z,3.90
2018-11-13T20:50:41.262Z,3.58
2018-11-13T20:53:10.884Z,3.40
2018-11-13T20:55:40.180Z,3.45
2018-11-13T20:58:09.522Z,3.33
2018-11-13T21:00:38.902Z,3.58
2018-11-13T21:03:09.475Z,3.08
2018-11-13T21:05:39.011Z,2.80
2018-11-13T21:08:08.411Z,3.45
2018-11-13T21:10:38.998Z,2.80
2018-11-13T21:13:09.253Z,3.33
2018-11-13T21:15:38.588Z,3.95
2018-11-13T21:18:07.924Z,4.22
2018-11-13T21:20:37.263Z,4.60
2018-11-13T21:23:06.351Z,4.35
2018-11-13T21:25:35.324Z,4.10
2018-11-13T21:28:04.176Z,2.80
2018-11-13T21:30:33.456Z,3.87
2018-11-13T21:33:02.206Z,3.20
2018-11-13T21:35:30.734Z,3.87
2018-11-13T21:37:58.688Z,3.45
2018-11-13T21:47:49.668Z,4.23
2018-11-13T21:50:18.538Z,3.60
2018-11-13T22:05:01.544Z,3.65
2018-11-13T22:07:29.104Z,3.92
2018-11-13T22:09:56.688Z,3.72
2018-11-13T22:12:24.262Z,1.85
2018-11-13T22:14:51.849Z,3.85
2018-11-13T22:17:20.411Z,3.40
2018-11-13T22:19:48.028Z,2.33
2018-11-13T22:22:15.693Z,1.77
2018-11-13T22:24:43.201Z,8.58
2018-11-13T22:27:10.968Z,3.25
2018-11-13T22:29:38.535Z,2.67
2018-11-13T22:32:06.149Z,2.37
2018-11-13T22:34:33.694Z,3.67
2018-11-13T22:37:05.176Z,2.65
2018-11-13T22:39:32.742Z,3.27
2018-11-13T22:42:00.303Z,3.27
2018-11-13T22:44:28.275Z,3.47
2018-11-13T22:46:55.479Z,2.60
2018-11-13T22:49:23.027Z,3.55
2018-11-13T22:51:50.566Z,2.30
2018-11-13T22:54:18.199Z,2.58
2018-11-13T22:56:45.846Z,3.60
2018-11-13T22:59:13.392Z,3.17
2018-11-13T23:01:40.956Z,2.72
2018-11-13T23:04:08.536Z,2.70
2018-11-13T23:06:36.087Z,2.77
2018-11-13T23:09:05.751Z,2.35
2018-11-13T23:11:33.308Z,1.70
2018-11-13T23:14:00.887Z,3.10
2018-11-13T23:16:28.483Z,2.00
2018-11-13T23:18:55.991Z,3.02
2018-11-13T23:21:23.571Z,2.60
2018-11-13T23:23:51.190Z,3.27
2018-11-13T23:26:18.742Z,3.40
2018-11-13T23:28:46.286Z,4.10
2018-11-13T23:31:13.896Z,2.55
2018-11-13T23:33:41.511Z,2.80
2018-11-13T23:36:09.120Z,2.83
2018-11-13T23:38:36.679Z,2.10
2018-11-13T23:41:04.319Z,2.80
2018-11-13T23:43:31.889Z,2.33
2018-11-13T23:46:03.168Z,2.30
2018-11-13T23:48:30.778Z,2.55
2018-11-13T23:50:58.296Z,2.45
2018-11-13T23:53:25.881Z,2.30
2018-11-13T23:55:53.484Z,2.72
2018-11-13T23:58:21.058Z,2.75
